Malin, Oregon
Current Conditions -  °F | °C
As of 9:53 PM on Friday 28 Nov 2014 (Local Time) from KLMT Reporting Station
Broken Clouds Broken Clouds  
Wind Chill: 33°   Ceiling: 6500
Heat Index: 41°   Visibility: 10mi
Dew Point: 36°   Wind: 14mph
Humidity: 82%   Direction: 170°S
Pressure: 29.69"   Gusts: NA
Location:  42.01°N, 121.41°W
Report Text: KLMT 290553Z 17012KT 10SM SCT039 BKN065 BKN090 05/02 A2969 RMK AO2 RAE18 SLP042 P0001 60008 T00500022 10072 20044 58008
Loading
Personal Weather Stations






























Interactive Weather Map New forecast layout! Learn more

10-Day Weather Forecast

Advertisements
Track Severe Weather on mobile